Terminal Aerodrome Forecast
Issued by NWS

Home | Current Version | Previous Version | Text Only | Print | Product List | Glossary Off
Versions: 1 2 3 4 5 6 7 8 9 10 11 12 13 14 15 16 17 18

245
FTUS43 KICT 251720
TAFCNU
TAF
KCNU 251720Z 2518/2618 07007KT P6SM FEW025 BKN150
     FM252000 07007KT P6SM VCTS SCT035CB BKN100
     FM260000 06007KT P6SM FEW150
     FM260900 04004KT 5SM BR FEW005
     FM261500 05005KT P6SM SKC=

USA.gov is the U.S. government's official web portal to all federal, state and local government web resources and services.